sensor_id;sensor_type;location;lat;lon;timestamp;P1;durP1;ratioP1;P2;durP2;ratioP2
6113;SDS011;3087;48.392;10.836;2023-02-28T00:00:27;5.13;;;3.73;;
6113;SDS011;3087;48.392;10.836;2023-02-28T00:02:52;7.10;;;4.20;;
6113;SDS011;3087;48.392;10.836;2023-02-28T00:05:19;5.67;;;4.40;;
6113;SDS011;3087;48.392;10.836;2023-02-28T00:07:46;4.70;;;3.80;;
6113;SDS011;3087;48.392;10.836;2023-02-28T00:10:14;6.67;;;3.93;;
6113;SDS011;3087;48.392;10.836;2023-02-28T00:12:46;4.80;;;4.27;;
6113;SDS011;3087;48.392;10.836;2023-02-28T00:15:13;6.63;;;4.43;;
6113;SDS011;3087;48.392;10.836;2023-02-28T00:17:38;6.10;;;4.47;;
6113;SDS011;3087;48.392;10.836;2023-02-28T00:20:05;5.33;;;4.00;;
6113;SDS011;3087;48.392;10.836;2023-02-28T00:22:33;4.83;;;4.00;;
6113;SDS011;3087;48.392;10.836;2023-02-28T00:24:59;4.53;;;4.07;;
6113;SDS011;3087;48.392;10.836;2023-02-28T00:27:25;6.37;;;4.70;;
6113;SDS011;3087;48.392;10.836;2023-02-28T00:29:50;5.77;;;4.50;;
6113;SDS011;3087;48.392;10.836;2023-02-28T00:32:16;7.83;;;5.33;;
6113;SDS011;3087;48.392;10.836;2023-02-28T00:34:43;5.67;;;4.40;;
6113;SDS011;3087;48.392;10.836;2023-02-28T00:37:09;8.53;;;5.60;;
6113;SDS011;3087;48.392;10.836;2023-02-28T00:39:37;5.13;;;4.20;;
6113;SDS011;3087;48.392;10.836;2023-02-28T00:42:03;4.80;;;4.17;;
6113;SDS011;3087;48.392;10.836;2023-02-28T00:44:30;6.43;;;4.70;;
6113;SDS011;3087;48.392;10.836;2023-02-28T00:46:56;6.33;;;4.53;;
6113;SDS011;3087;48.392;10.836;2023-02-28T00:49:22;6.90;;;4.70;;
6113;SDS011;3087;48.392;10.836;2023-02-28T00:51:49;5.97;;;4.37;;
6113;SDS011;3087;48.392;10.836;2023-02-28T00:54:15;7.10;;;5.10;;
6113;SDS011;3087;48.392;10.836;2023-02-28T00:56:41;5.53;;;4.23;;
6113;SDS011;3087;48.392;10.836;2023-02-28T00:59:07;6.13;;;4.67;;
6113;SDS011;3087;48.392;10.836;2023-02-28T01:01:33;7.13;;;5.07;;
6113;SDS011;3087;48.392;10.836;2023-02-28T01:03:58;5.63;;;4.10;;
6113;SDS011;3087;48.392;10.836;2023-02-28T01:06:24;8.23;;;4.53;;
6113;SDS011;3087;48.392;10.836;2023-02-28T01:08:49;6.80;;;5.30;;
6113;SDS011;3087;48.392;10.836;2023-02-28T01:11:16;5.20;;;4.37;;
6113;SDS011;3087;48.392;10.836;2023-02-28T01:13:43;5.30;;;4.07;;
6113;SDS011;3087;48.392;10.836;2023-02-28T01:16:11;5.97;;;4.43;;
6113;SDS011;3087;48.392;10.836;2023-02-28T01:18:37;4.97;;;3.97;;
6113;SDS011;3087;48.392;10.836;2023-02-28T01:21:07;7.03;;;3.90;;
6113;SDS011;3087;48.392;10.836;2023-02-28T01:23:34;6.00;;;4.37;;
6113;SDS011;3087;48.392;10.836;2023-02-28T01:26:14;5.90;;;4.37;;
6113;SDS011;3087;48.392;10.836;2023-02-28T01:28:44;6.90;;;4.77;;
6113;SDS011;3087;48.392;10.836;2023-02-28T01:31:10;6.63;;;4.60;;
6113;SDS011;3087;48.392;10.836;2023-02-28T01:33:36;6.63;;;5.07;;
6113;SDS011;3087;48.392;10.836;2023-02-28T01:38:31;6.57;;;4.20;;
6113;SDS011;3087;48.392;10.836;2023-02-28T01:40:56;6.27;;;4.53;;
6113;SDS011;3087;48.392;10.836;2023-02-28T01:45:53;5.40;;;4.10;;
6113;SDS011;3087;48.392;10.836;2023-02-28T01:48:21;5.73;;;4.70;;
6113;SDS011;3087;48.392;10.836;2023-02-28T01:50:52;6.00;;;4.03;;
6113;SDS011;3087;48.392;10.836;2023-02-28T01:53:23;5.20;;;4.47;;
6113;SDS011;3087;48.392;10.836;2023-02-28T01:55:57;6.77;;;4.17;;
6113;SDS011;3087;48.392;10.836;2023-02-28T01:58:23;6.07;;;4.53;;
6113;SDS011;3087;48.392;10.836;2023-02-28T02:00:49;7.73;;;4.67;;
6113;SDS011;3087;48.392;10.836;2023-02-28T02:03:15;6.90;;;4.80;;
6113;SDS011;3087;48.392;10.836;2023-02-28T02:05:46;7.53;;;4.80;;
6113;SDS011;3087;48.392;10.836;2023-02-28T02:08:23;6.93;;;5.17;;
6113;SDS011;3087;48.392;10.836;2023-02-28T02:10:53;5.33;;;4.40;;
6113;SDS011;3087;48.392;10.836;2023-02-28T02:18:58;6.43;;;4.67;;
6113;SDS011;3087;48.392;10.836;2023-02-28T02:34:41;6.43;;;4.90;;
6113;SDS011;3087;48.392;10.836;2023-02-28T02:42:25;6.10;;;4.57;;
6113;SDS011;3087;48.392;10.836;2023-02-28T02:45:05;7.00;;;4.83;;
6113;SDS011;3087;48.392;10.836;2023-02-28T02:47:36;6.50;;;5.00;;
6113;SDS011;3087;48.392;10.836;2023-02-28T02:50:05;7.40;;;5.50;;
6113;SDS011;3087;48.392;10.836;2023-02-28T02:52:40;6.83;;;4.83;;
6113;SDS011;3087;48.392;10.836;2023-02-28T02:55:10;5.70;;;4.60;;
6113;SDS011;3087;48.392;10.836;2023-02-28T02:57:48;6.63;;;5.40;;
6113;SDS011;3087;48.392;10.836;2023-02-28T03:00:39;9.00;;;5.10;;
6113;SDS011;3087;48.392;10.836;2023-02-28T03:03:09;6.57;;;4.33;;
6113;SDS011;3087;48.392;10.836;2023-02-28T03:05:41;8.07;;;5.63;;
6113;SDS011;3087;48.392;10.836;2023-02-28T03:08:10;7.07;;;5.10;;
6113;SDS011;3087;48.392;10.836;2023-02-28T03:10:40;7.60;;;5.00;;
6113;SDS011;3087;48.392;10.836;2023-02-28T03:19:03;7.40;;;5.30;;
6113;SDS011;3087;48.392;10.836;2023-02-28T03:27:04;6.90;;;5.33;;
6113;SDS011;3087;48.392;10.836;2023-02-28T03:30:00;6.83;;;5.00;;
6113;SDS011;3087;48.392;10.836;2023-02-28T03:32:33;8.67;;;5.27;;
6113;SDS011;3087;48.392;10.836;2023-02-28T03:35:07;8.73;;;5.37;;
6113;SDS011;3087;48.392;10.836;2023-02-28T03:37:40;8.30;;;5.53;;
6113;SDS011;3087;48.392;10.836;2023-02-28T03:40:10;8.03;;;4.90;;
6113;SDS011;3087;48.392;10.836;2023-02-28T03:42:39;6.13;;;5.43;;
6113;SDS011;3087;48.392;10.836;2023-02-28T03:45:12;8.03;;;5.20;;
6113;SDS011;3087;48.392;10.836;2023-02-28T03:52:58;6.73;;;5.47;;
6113;SDS011;3087;48.392;10.836;2023-02-28T03:55:30;7.67;;;5.50;;
6113;SDS011;3087;48.392;10.836;2023-02-28T03:58:05;8.47;;;5.27;;
6113;SDS011;3087;48.392;10.836;2023-02-28T04:00:38;6.00;;;4.83;;
6113;SDS011;3087;48.392;10.836;2023-02-28T04:03:08;7.43;;;5.30;;
6113;SDS011;3087;48.392;10.836;2023-02-28T04:05:34;6.90;;;5.27;;
6113;SDS011;3087;48.392;10.836;2023-02-28T04:08:12;8.23;;;5.50;;
6113;SDS011;3087;48.392;10.836;2023-02-28T04:10:38;6.93;;;5.83;;
6113;SDS011;3087;48.392;10.836;2023-02-28T04:13:04;6.23;;;5.37;;
6113;SDS011;3087;48.392;10.836;2023-02-28T04:15:29;5.80;;;5.00;;
6113;SDS011;3087;48.392;10.836;2023-02-28T04:17:56;7.67;;;5.50;;
6113;SDS011;3087;48.392;10.836;2023-02-28T04:20:22;9.33;;;6.63;;
6113;SDS011;3087;48.392;10.836;2023-02-28T04:22:48;7.77;;;5.60;;
6113;SDS011;3087;48.392;10.836;2023-02-28T04:25:13;9.20;;;5.67;;
6113;SDS011;3087;48.392;10.836;2023-02-28T04:27:39;8.00;;;5.67;;
6113;SDS011;3087;48.392;10.836;2023-02-28T04:30:05;8.20;;;5.83;;
6113;SDS011;3087;48.392;10.836;2023-02-28T04:32:31;6.83;;;5.40;;
6113;SDS011;3087;48.392;10.836;2023-02-28T04:34:57;6.73;;;5.33;;
6113;SDS011;3087;48.392;10.836;2023-02-28T04:37:22;10.77;;;5.83;;
6113;SDS011;3087;48.392;10.836;2023-02-28T04:39:52;10.13;;;5.77;;
6113;SDS011;3087;48.392;10.836;2023-02-28T04:42:18;7.77;;;5.77;;
6113;SDS011;3087;48.392;10.836;2023-02-28T04:44:44;6.87;;;5.57;;
6113;SDS011;3087;48.392;10.836;2023-02-28T04:47:09;8.10;;;6.23;;
6113;SDS011;3087;48.392;10.836;2023-02-28T04:49:35;6.23;;;5.37;;
6113;SDS011;3087;48.392;10.836;2023-02-28T04:52:00;5.70;;;5.00;;
6113;SDS011;3087;48.392;10.836;2023-02-28T04:54:26;10.57;;;6.10;;
6113;SDS011;3087;48.392;10.836;2023-02-28T04:56:53;6.77;;;5.73;;
6113;SDS011;3087;48.392;10.836;2023-02-28T04:59:19;7.97;;;5.50;;
6113;SDS011;3087;48.392;10.836;2023-02-28T05:01:46;9.13;;;5.70;;
6113;SDS011;3087;48.392;10.836;2023-02-28T05:04:13;6.30;;;5.40;;
6113;SDS011;3087;48.392;10.836;2023-02-28T05:06:38;7.40;;;5.33;;
6113;SDS011;3087;48.392;10.836;2023-02-28T05:09:04;10.23;;;7.60;;
6113;SDS011;3087;48.392;10.836;2023-02-28T05:11:31;8.47;;;6.70;;
6113;SDS011;3087;48.392;10.836;2023-02-28T05:14:01;7.00;;;5.70;;
6113;SDS011;3087;48.392;10.836;2023-02-28T05:16:29;8.73;;;6.10;;
6113;SDS011;3087;48.392;10.836;2023-02-28T05:18:55;9.40;;;7.10;;
6113;SDS011;3087;48.392;10.836;2023-02-28T05:21:54;9.10;;;7.17;;
6113;SDS011;3087;48.392;10.836;2023-02-28T05:24:16;7.87;;;6.17;;
6113;SDS011;3087;48.392;10.836;2023-02-28T05:26:47;9.33;;;6.80;;
6113;SDS011;3087;48.392;10.836;2023-02-28T05:29:13;7.60;;;5.97;;
6113;SDS011;3087;48.392;10.836;2023-02-28T05:31:39;10.77;;;6.63;;
6113;SDS011;3087;48.392;10.836;2023-02-28T05:34:05;8.47;;;6.53;;
6113;SDS011;3087;48.392;10.836;2023-02-28T05:36:31;9.93;;;6.63;;
6113;SDS011;3087;48.392;10.836;2023-02-28T05:38:56;9.90;;;7.77;;
6113;SDS011;3087;48.392;10.836;2023-02-28T05:41:22;7.60;;;5.97;;
6113;SDS011;3087;48.392;10.836;2023-02-28T05:43:48;8.07;;;6.63;;
6113;SDS011;3087;48.392;10.836;2023-02-28T05:46:14;10.77;;;6.97;;
6113;SDS011;3087;48.392;10.836;2023-02-28T05:48:40;8.60;;;6.93;;
6113;SDS011;3087;48.392;10.836;2023-02-28T05:51:07;7.73;;;5.90;;
6113;SDS011;3087;48.392;10.836;2023-02-28T05:53:34;8.10;;;6.20;;
6113;SDS011;3087;48.392;10.836;2023-02-28T05:56:00;8.93;;;6.80;;
6113;SDS011;3087;48.392;10.836;2023-02-28T05:58:26;8.80;;;7.07;;
6113;SDS011;3087;48.392;10.836;2023-02-28T06:00:55;12.80;;;8.50;;
6113;SDS011;3087;48.392;10.836;2023-02-28T06:03:22;8.20;;;6.90;;
6113;SDS011;3087;48.392;10.836;2023-02-28T06:05:47;8.47;;;6.53;;
6113;SDS011;3087;48.392;10.836;2023-02-28T06:08:13;9.17;;;6.60;;
6113;SDS011;3087;48.392;10.836;2023-02-28T06:10:38;14.10;;;6.97;;
6113;SDS011;3087;48.392;10.836;2023-02-28T06:13:04;8.37;;;6.60;;
6113;SDS011;3087;48.392;10.836;2023-02-28T06:15:30;8.77;;;6.97;;
6113;SDS011;3087;48.392;10.836;2023-02-28T06:17:57;8.50;;;7.10;;
6113;SDS011;3087;48.392;10.836;2023-02-28T06:20:23;12.40;;;8.33;;
6113;SDS011;3087;48.392;10.836;2023-02-28T06:22:50;10.90;;;8.87;;
6113;SDS011;3087;48.392;10.836;2023-02-28T06:25:17;9.50;;;7.30;;
6113;SDS011;3087;48.392;10.836;2023-02-28T06:27:43;10.63;;;7.10;;
6113;SDS011;3087;48.392;10.836;2023-02-28T06:30:09;8.13;;;6.17;;
6113;SDS011;3087;48.392;10.836;2023-02-28T06:32:36;10.33;;;7.23;;
6113;SDS011;3087;48.392;10.836;2023-02-28T06:35:01;18.17;;;7.57;;
6113;SDS011;3087;48.392;10.836;2023-02-28T06:37:28;10.73;;;7.10;;
6113;SDS011;3087;48.392;10.836;2023-02-28T06:39:53;10.93;;;7.40;;
6113;SDS011;3087;48.392;10.836;2023-02-28T06:42:21;10.20;;;7.57;;
6113;SDS011;3087;48.392;10.836;2023-02-28T06:44:50;12.10;;;8.30;;
6113;SDS011;3087;48.392;10.836;2023-02-28T06:47:16;11.47;;;7.60;;
6113;SDS011;3087;48.392;10.836;2023-02-28T06:49:41;10.70;;;7.60;;
6113;SDS011;3087;48.392;10.836;2023-02-28T06:52:07;13.03;;;7.27;;
6113;SDS011;3087;48.392;10.836;2023-02-28T06:54:33;9.07;;;7.33;;
6113;SDS011;3087;48.392;10.836;2023-02-28T06:56:59;11.17;;;7.23;;
6113;SDS011;3087;48.392;10.836;2023-02-28T06:59:24;12.30;;;8.40;;
6113;SDS011;3087;48.392;10.836;2023-02-28T07:01:50;10.47;;;7.57;;
6113;SDS011;3087;48.392;10.836;2023-02-28T07:04:16;9.73;;;7.20;;
6113;SDS011;3087;48.392;10.836;2023-02-28T07:06:41;9.40;;;7.93;;
6113;SDS011;3087;48.392;10.836;2023-02-28T07:09:07;9.80;;;7.40;;
6113;SDS011;3087;48.392;10.836;2023-02-28T07:11:33;12.77;;;7.53;;
6113;SDS011;3087;48.392;10.836;2023-02-28T07:13:59;10.63;;;7.90;;
6113;SDS011;3087;48.392;10.836;2023-02-28T07:16:24;13.93;;;8.67;;
6113;SDS011;3087;48.392;10.836;2023-02-28T07:18:53;17.00;;;10.57;;
6113;SDS011;3087;48.392;10.836;2023-02-28T07:21:19;18.53;;;8.33;;
6113;SDS011;3087;48.392;10.836;2023-02-28T07:23:44;11.00;;;7.77;;
6113;SDS011;3087;48.392;10.836;2023-02-28T07:26:11;9.37;;;7.70;;
6113;SDS011;3087;48.392;10.836;2023-02-28T07:28:39;18.23;;;7.93;;
6113;SDS011;3087;48.392;10.836;2023-02-28T07:31:05;13.33;;;7.00;;
6113;SDS011;3087;48.392;10.836;2023-02-28T07:33:32;13.13;;;8.17;;
6113;SDS011;3087;48.392;10.836;2023-02-28T07:36:03;13.97;;;7.97;;
6113;SDS011;3087;48.392;10.836;2023-02-28T07:38:30;14.17;;;9.03;;
6113;SDS011;3087;48.392;10.836;2023-02-28T07:40:56;12.27;;;7.70;;
6113;SDS011;3087;48.392;10.836;2023-02-28T07:43:21;13.40;;;8.10;;
6113;SDS011;3087;48.392;10.836;2023-02-28T07:45:47;8.90;;;7.13;;
6113;SDS011;3087;48.392;10.836;2023-02-28T07:48:12;11.43;;;7.47;;
6113;SDS011;3087;48.392;10.836;2023-02-28T07:50:38;10.57;;;8.17;;
6113;SDS011;3087;48.392;10.836;2023-02-28T07:53:03;10.77;;;7.93;;
6113;SDS011;3087;48.392;10.836;2023-02-28T07:55:29;11.73;;;8.10;;
6113;SDS011;3087;48.392;10.836;2023-02-28T07:57:56;9.10;;;7.53;;
6113;SDS011;3087;48.392;10.836;2023-02-28T08:00:22;12.07;;;8.53;;
6113;SDS011;3087;48.392;10.836;2023-02-28T08:02:48;9.83;;;7.90;;
6113;SDS011;3087;48.392;10.836;2023-02-28T08:05:13;9.77;;;7.40;;
6113;SDS011;3087;48.392;10.836;2023-02-28T08:07:39;12.93;;;7.80;;
6113;SDS011;3087;48.392;10.836;2023-02-28T08:10:05;12.30;;;8.57;;
6113;SDS011;3087;48.392;10.836;2023-02-28T08:12:31;16.57;;;8.50;;
6113;SDS011;3087;48.392;10.836;2023-02-28T08:14:57;12.23;;;8.67;;
6113;SDS011;3087;48.392;10.836;2023-02-28T08:17:23;10.77;;;8.53;;
6113;SDS011;3087;48.392;10.836;2023-02-28T08:19:48;11.87;;;8.93;;
6113;SDS011;3087;48.392;10.836;2023-02-28T08:22:14;10.43;;;8.17;;
6113;SDS011;3087;48.392;10.836;2023-02-28T08:24:40;10.13;;;8.40;;
6113;SDS011;3087;48.392;10.836;2023-02-28T08:27:07;14.07;;;9.40;;
6113;SDS011;3087;48.392;10.836;2023-02-28T08:29:33;14.50;;;9.80;;
6113;SDS011;3087;48.392;10.836;2023-02-28T08:32:01;15.57;;;9.90;;
6113;SDS011;3087;48.392;10.836;2023-02-28T08:34:27;12.07;;;8.73;;
6113;SDS011;3087;48.392;10.836;2023-02-28T08:36:52;14.57;;;9.77;;
6113;SDS011;3087;48.392;10.836;2023-02-28T08:39:18;12.90;;;9.00;;
6113;SDS011;3087;48.392;10.836;2023-02-28T08:41:45;12.10;;;8.77;;
6113;SDS011;3087;48.392;10.836;2023-02-28T08:44:10;13.00;;;9.20;;
6113;SDS011;3087;48.392;10.836;2023-02-28T08:46:36;12.80;;;9.23;;
6113;SDS011;3087;48.392;10.836;2023-02-28T08:49:02;14.33;;;10.47;;
6113;SDS011;3087;48.392;10.836;2023-02-28T08:51:28;13.00;;;9.30;;
6113;SDS011;3087;48.392;10.836;2023-02-28T08:53:58;14.70;;;10.13;;
6113;SDS011;3087;48.392;10.836;2023-02-28T08:56:26;15.50;;;10.80;;
6113;SDS011;3087;48.392;10.836;2023-02-28T08:58:53;14.67;;;11.10;;
6113;SDS011;3087;48.392;10.836;2023-02-28T09:01:22;15.20;;;10.43;;
6113;SDS011;3087;48.392;10.836;2023-02-28T09:03:49;15.70;;;10.20;;
6113;SDS011;3087;48.392;10.836;2023-02-28T09:06:18;11.63;;;9.77;;
6113;SDS011;3087;48.392;10.836;2023-02-28T09:08:44;15.87;;;9.10;;
6113;SDS011;3087;48.392;10.836;2023-02-28T09:11:10;12.87;;;9.67;;
6113;SDS011;3087;48.392;10.836;2023-02-28T09:13:37;12.53;;;9.30;;
6113;SDS011;3087;48.392;10.836;2023-02-28T09:16:04;12.87;;;9.83;;
6113;SDS011;3087;48.392;10.836;2023-02-28T09:18:33;13.63;;;9.53;;
6113;SDS011;3087;48.392;10.836;2023-02-28T09:21:02;13.40;;;9.90;;
6113;SDS011;3087;48.392;10.836;2023-02-28T09:23:28;16.33;;;9.03;;
6113;SDS011;3087;48.392;10.836;2023-02-28T09:25:54;11.20;;;9.20;;
6113;SDS011;3087;48.392;10.836;2023-02-28T09:28:20;12.13;;;9.27;;
6113;SDS011;3087;48.392;10.836;2023-02-28T09:30:47;13.20;;;9.77;;
6113;SDS011;3087;48.392;10.836;2023-02-28T09:33:15;12.90;;;9.17;;
6113;SDS011;3087;48.392;10.836;2023-02-28T09:35:42;13.23;;;9.97;;
6113;SDS011;3087;48.392;10.836;2023-02-28T09:38:08;14.00;;;9.63;;
6113;SDS011;3087;48.392;10.836;2023-02-28T09:40:35;13.57;;;9.33;;
6113;SDS011;3087;48.392;10.836;2023-02-28T09:43:05;11.63;;;8.97;;
6113;SDS011;3087;48.392;10.836;2023-02-28T09:45:36;12.30;;;9.43;;
6113;SDS011;3087;48.392;10.836;2023-02-28T09:48:10;12.33;;;9.87;;
6113;SDS011;3087;48.392;10.836;2023-02-28T09:50:41;12.47;;;9.87;;
6113;SDS011;3087;48.392;10.836;2023-02-28T09:53:42;12.00;;;9.23;;
6113;SDS011;3087;48.392;10.836;2023-02-28T09:56:24;14.63;;;9.80;;
6113;SDS011;3087;48.392;10.836;2023-02-28T09:59:17;12.87;;;10.13;;
6113;SDS011;3087;48.392;10.836;2023-02-28T10:01:55;13.57;;;10.30;;
6113;SDS011;3087;48.392;10.836;2023-02-28T10:04:46;13.10;;;9.83;;
6113;SDS011;3087;48.392;10.836;2023-02-28T10:07:42;12.17;;;9.33;;
6113;SDS011;3087;48.392;10.836;2023-02-28T10:12:53;14.77;;;9.70;;
6113;SDS011;3087;48.392;10.836;2023-02-28T10:15:23;13.67;;;11.00;;
6113;SDS011;3087;48.392;10.836;2023-02-28T10:17:53;12.73;;;9.07;;
6113;SDS011;3087;48.392;10.836;2023-02-28T10:20:22;11.83;;;8.63;;
6113;SDS011;3087;48.392;10.836;2023-02-28T10:25:50;12.07;;;9.47;;
6113;SDS011;3087;48.392;10.836;2023-02-28T10:28:38;12.53;;;8.97;;
6113;SDS011;3087;48.392;10.836;2023-02-28T10:31:05;9.97;;;8.63;;
6113;SDS011;3087;48.392;10.836;2023-02-28T10:33:34;11.87;;;9.03;;
6113;SDS011;3087;48.392;10.836;2023-02-28T10:36:01;13.97;;;9.53;;
6113;SDS011;3087;48.392;10.836;2023-02-28T10:38:31;13.60;;;9.60;;
6113;SDS011;3087;48.392;10.836;2023-02-28T10:41:09;16.43;;;12.57;;
6113;SDS011;3087;48.392;10.836;2023-02-28T10:43:38;14.97;;;10.07;;
6113;SDS011;3087;48.392;10.836;2023-02-28T10:48:38;11.53;;;9.07;;
6113;SDS011;3087;48.392;10.836;2023-02-28T10:51:08;9.23;;;8.23;;
6113;SDS011;3087;48.392;10.836;2023-02-28T10:53:45;9.18;;;8.30;;
6113;SDS011;3087;48.392;10.836;2023-02-28T10:56:20;16.08;;;9.80;;
6113;SDS011;3087;48.392;10.836;2023-02-28T10:58:55;11.93;;;8.20;;
6113;SDS011;3087;48.392;10.836;2023-02-28T11:06:59;12.70;;;8.63;;
6113;SDS011;3087;48.392;10.836;2023-02-28T11:09:44;12.70;;;8.88;;
6113;SDS011;3087;48.392;10.836;2023-02-28T11:12:20;11.55;;;8.68;;
6113;SDS011;3087;48.392;10.836;2023-02-28T11:15:04;13.98;;;8.60;;
6113;SDS011;3087;48.392;10.836;2023-02-28T11:17:43;11.23;;;8.65;;
6113;SDS011;3087;48.392;10.836;2023-02-28T11:20:10;10.60;;;8.70;;
6113;SDS011;3087;48.392;10.836;2023-02-28T11:22:46;10.27;;;9.02;;
6113;SDS011;3087;48.392;10.836;2023-02-28T11:25:36;11.35;;;8.70;;
6113;SDS011;3087;48.392;10.836;2023-02-28T11:28:00;9.00;;;7.63;;
6113;SDS011;3087;48.392;10.836;2023-02-28T11:30:34;10.10;;;8.38;;
6113;SDS011;3087;48.392;10.836;2023-02-28T11:36:01;12.80;;;8.73;;
6113;SDS011;3087;48.392;10.836;2023-02-28T11:38:32;11.38;;;9.45;;
6113;SDS011;3087;48.392;10.836;2023-02-28T11:46:29;8.95;;;7.95;;
6113;SDS011;3087;48.392;10.836;2023-02-28T11:51:58;11.82;;;8.40;;
6113;SDS011;3087;48.392;10.836;2023-02-28T11:54:49;10.93;;;7.97;;
6113;SDS011;3087;48.392;10.836;2023-02-28T12:06:01;10.00;;;8.70;;
6113;SDS011;3087;48.392;10.836;2023-02-28T12:08:39;10.80;;;8.25;;
6113;SDS011;3087;48.392;10.836;2023-02-28T12:16:33;9.75;;;8.73;;
6113;SDS011;3087;48.392;10.836;2023-02-28T12:19:19;12.32;;;8.32;;
6113;SDS011;3087;48.392;10.836;2023-02-28T12:27:43;9.80;;;8.20;;
6113;SDS011;3087;48.392;10.836;2023-02-28T12:30:30;10.88;;;7.82;;
6113;SDS011;3087;48.392;10.836;2023-02-28T12:33:09;11.40;;;8.48;;
6113;SDS011;3087;48.392;10.836;2023-02-28T12:40:57;10.57;;;8.38;;
6113;SDS011;3087;48.392;10.836;2023-02-28T12:43:29;9.93;;;7.93;;
6113;SDS011;3087;48.392;10.836;2023-02-28T12:45:59;9.45;;;7.95;;
6113;SDS011;3087;48.392;10.836;2023-02-28T12:48:37;12.55;;;10.95;;
6113;SDS011;3087;48.392;10.836;2023-02-28T12:51:09;17.80;;;14.15;;
6113;SDS011;3087;48.392;10.836;2023-02-28T12:56:48;10.23;;;9.05;;
6113;SDS011;3087;48.392;10.836;2023-02-28T12:59:35;9.15;;;7.97;;
6113;SDS011;3087;48.392;10.836;2023-02-28T13:10:18;10.30;;;8.93;;
6113;SDS011;3087;48.392;10.836;2023-02-28T13:12:50;10.57;;;8.60;;
6113;SDS011;3087;48.392;10.836;2023-02-28T13:15:26;8.65;;;7.78;;
6113;SDS011;3087;48.392;10.836;2023-02-28T13:18:00;9.52;;;8.27;;
6113;SDS011;3087;48.392;10.836;2023-02-28T13:20:26;9.57;;;8.35;;
6113;SDS011;3087;48.392;10.836;2023-02-28T13:22:57;12.45;;;8.65;;
6113;SDS011;3087;48.392;10.836;2023-02-28T13:27:58;10.27;;;8.50;;
6113;SDS011;3087;48.392;10.836;2023-02-28T13:33:37;11.10;;;8.18;;
6113;SDS011;3087;48.392;10.836;2023-02-28T13:36:29;10.75;;;8.25;;
6113;SDS011;3087;48.392;10.836;2023-02-28T13:44:31;15.13;;;8.73;;
6113;SDS011;3087;48.392;10.836;2023-02-28T14:03:10;9.82;;;8.10;;
6113;SDS011;3087;48.392;10.836;2023-02-28T14:08:35;10.37;;;9.10;;
6113;SDS011;3087;48.392;10.836;2023-02-28T14:11:03;8.60;;;7.70;;
6113;SDS011;3087;48.392;10.836;2023-02-28T14:13:44;10.68;;;8.10;;
6113;SDS011;3087;48.392;10.836;2023-02-28T14:16:16;12.15;;;8.45;;
6113;SDS011;3087;48.392;10.836;2023-02-28T14:18:49;10.95;;;9.02;;
6113;SDS011;3087;48.392;10.836;2023-02-28T14:30:25;8.20;;;6.70;;
6113;SDS011;3087;48.392;10.836;2023-02-28T14:38:31;8.63;;;7.65;;
6113;SDS011;3087;48.392;10.836;2023-02-28T14:41:00;14.03;;;8.67;;
6113;SDS011;3087;48.392;10.836;2023-02-28T14:43:31;10.37;;;7.93;;
6113;SDS011;3087;48.392;10.836;2023-02-28T14:46:01;13.57;;;8.23;;
6113;SDS011;3087;48.392;10.836;2023-02-28T14:48:29;12.67;;;8.27;;
6113;SDS011;3087;48.392;10.836;2023-02-28T14:50:56;10.00;;;8.27;;
6113;SDS011;3087;48.392;10.836;2023-02-28T14:53:25;9.10;;;7.20;;
6113;SDS011;3087;48.392;10.836;2023-02-28T14:55:53;11.23;;;8.07;;
6113;SDS011;3087;48.392;10.836;2023-02-28T15:00:48;11.47;;;8.90;;
6113;SDS011;3087;48.392;10.836;2023-02-28T15:03:22;9.87;;;8.13;;
6113;SDS011;3087;48.392;10.836;2023-02-28T15:05:55;12.07;;;8.30;;
6113;SDS011;3087;48.392;10.836;2023-02-28T15:08:25;8.53;;;7.63;;
6113;SDS011;3087;48.392;10.836;2023-02-28T15:10:55;11.60;;;8.03;;
6113;SDS011;3087;48.392;10.836;2023-02-28T15:13:26;12.90;;;8.53;;
6113;SDS011;3087;48.392;10.836;2023-02-28T15:16:01;11.63;;;7.80;;
6113;SDS011;3087;48.392;10.836;2023-02-28T15:21:06;9.93;;;7.77;;
6113;SDS011;3087;48.392;10.836;2023-02-28T15:23:44;11.47;;;8.70;;
6113;SDS011;3087;48.392;10.836;2023-02-28T15:26:16;12.00;;;8.90;;
6113;SDS011;3087;48.392;10.836;2023-02-28T15:28:45;11.03;;;8.50;;
6113;SDS011;3087;48.392;10.836;2023-02-28T15:31:19;9.67;;;7.97;;
6113;SDS011;3087;48.392;10.836;2023-02-28T15:33:56;10.87;;;8.37;;
6113;SDS011;3087;48.392;10.836;2023-02-28T15:36:26;10.47;;;8.17;;
6113;SDS011;3087;48.392;10.836;2023-02-28T15:38:56;14.03;;;11.47;;
6113;SDS011;3087;48.392;10.836;2023-02-28T15:41:27;10.83;;;8.93;;
6113;SDS011;3087;48.392;10.836;2023-02-28T15:44:42;11.33;;;9.10;;
6113;SDS011;3087;48.392;10.836;2023-02-28T15:47:36;10.03;;;7.43;;
6113;SDS011;3087;48.392;10.836;2023-02-28T15:49:45;10.83;;;9.20;;
6113;SDS011;3087;48.392;10.836;2023-02-28T15:52:39;11.87;;;8.83;;
6113;SDS011;3087;48.392;10.836;2023-02-28T15:57:41;11.33;;;8.13;;
6113;SDS011;3087;48.392;10.836;2023-02-28T16:00:10;16.40;;;8.97;;
6113;SDS011;3087;48.392;10.836;2023-02-28T16:02:38;12.33;;;9.17;;
6113;SDS011;3087;48.392;10.836;2023-02-28T16:07:40;10.87;;;9.43;;
6113;SDS011;3087;48.392;10.836;2023-02-28T16:10:09;13.20;;;9.97;;
6113;SDS011;3087;48.392;10.836;2023-02-28T16:12:37;12.43;;;9.47;;
6113;SDS011;3087;48.392;10.836;2023-02-28T16:15:08;15.00;;;10.00;;
6113;SDS011;3087;48.392;10.836;2023-02-28T16:17:45;11.53;;;9.23;;
6113;SDS011;3087;48.392;10.836;2023-02-28T16:20:32;13.00;;;8.37;;
6113;SDS011;3087;48.392;10.836;2023-02-28T16:22:57;12.73;;;9.60;;
6113;SDS011;3087;48.392;10.836;2023-02-28T16:25:28;12.80;;;9.77;;
6113;SDS011;3087;48.392;10.836;2023-02-28T16:28:08;13.30;;;10.37;;
6113;SDS011;3087;48.392;10.836;2023-02-28T16:30:52;13.07;;;10.10;;
6113;SDS011;3087;48.392;10.836;2023-02-28T16:33:18;12.90;;;10.50;;
6113;SDS011;3087;48.392;10.836;2023-02-28T16:35:44;20.20;;;13.20;;
6113;SDS011;3087;48.392;10.836;2023-02-28T16:38:10;11.87;;;9.20;;
6113;SDS011;3087;48.392;10.836;2023-02-28T16:40:35;16.70;;;9.20;;
6113;SDS011;3087;48.392;10.836;2023-02-28T16:43:04;10.97;;;9.27;;
6113;SDS011;3087;48.392;10.836;2023-02-28T16:45:32;10.83;;;8.70;;
6113;SDS011;3087;48.392;10.836;2023-02-28T16:47:58;12.40;;;9.13;;
6113;SDS011;3087;48.392;10.836;2023-02-28T16:50:25;13.27;;;9.70;;
6113;SDS011;3087;48.392;10.836;2023-02-28T16:52:52;15.07;;;10.73;;
6113;SDS011;3087;48.392;10.836;2023-02-28T16:55:19;14.80;;;10.53;;
6113;SDS011;3087;48.392;10.836;2023-02-28T16:57:55;13.40;;;9.67;;
6113;SDS011;3087;48.392;10.836;2023-02-28T17:00:23;13.20;;;10.07;;
6113;SDS011;3087;48.392;10.836;2023-02-28T17:02:50;11.63;;;9.90;;
6113;SDS011;3087;48.392;10.836;2023-02-28T17:05:16;13.30;;;10.43;;
6113;SDS011;3087;48.392;10.836;2023-02-28T17:07:43;13.80;;;10.03;;
6113;SDS011;3087;48.392;10.836;2023-02-28T17:10:23;13.70;;;10.90;;
6113;SDS011;3087;48.392;10.836;2023-02-28T17:12:51;16.33;;;9.50;;
6113;SDS011;3087;48.392;10.836;2023-02-28T17:15:18;12.67;;;10.00;;
6113;SDS011;3087;48.392;10.836;2023-02-28T17:17:45;16.70;;;10.77;;
6113;SDS011;3087;48.392;10.836;2023-02-28T17:20:19;16.37;;;11.00;;
6113;SDS011;3087;48.392;10.836;2023-02-28T17:22:49;13.53;;;10.70;;
6113;SDS011;3087;48.392;10.836;2023-02-28T17:25:15;14.00;;;10.53;;
6113;SDS011;3087;48.392;10.836;2023-02-28T17:27:41;16.70;;;11.23;;
6113;SDS011;3087;48.392;10.836;2023-02-28T17:30:24;17.93;;;11.70;;
6113;SDS011;3087;48.392;10.836;2023-02-28T17:32:56;18.10;;;12.23;;
6113;SDS011;3087;48.392;10.836;2023-02-28T17:35:22;16.83;;;11.80;;
6113;SDS011;3087;48.392;10.836;2023-02-28T17:37:48;20.17;;;11.73;;
6113;SDS011;3087;48.392;10.836;2023-02-28T17:40:15;25.60;;;14.47;;
6113;SDS011;3087;48.392;10.836;2023-02-28T17:42:43;22.87;;;14.90;;
6113;SDS011;3087;48.392;10.836;2023-02-28T17:45:09;23.17;;;15.10;;
6113;SDS011;3087;48.392;10.836;2023-02-28T17:47:35;25.83;;;16.67;;
6113;SDS011;3087;48.392;10.836;2023-02-28T17:50:00;32.33;;;19.07;;